Time;durP1;ratioP1;P1;durP2;ratioP2;P2;SDS_P1;SDS_P2;PMS_P1;PMS_P2;Temp;Humidity;BMP_temperature;BMP_pressure;BME280_temperature;BME280_humidity;BME280_pressure;Samples;Min_cycle;Max_cycle;Signal;HPM_P1;HPM_P2
2024/01/11 00:01:20;;;;;;;30.85;16.13;;;;;;;-8.24;100.00;98182.16;5044700;28;20040;-61
2024/01/11 00:03:47;;;;;;;40.65;18.42;;;;;;;-8.19;100.00;98182.66;5036455;28;20052;-61
2024/01/11 00:06:14;;;;;;;41.33;18.45;;;;;;;-8.20;100.00;98180.16;5035738;28;20049;-62
2024/01/11 00:08:40;;;;;;;32.47;15.45;;;;;;;-8.29;100.00;98177.25;5037618;28;20488;-61
2024/01/11 00:11:07;;;;;;;30.13;17.80;;;;;;;-8.31;100.00;98184.41;5042426;28;20420;-61
2024/01/11 00:13:34;;;;;;;40.90;20.65;;;;;;;-8.34;100.00;98174.13;5037678;28;20454;-61
2024/01/11 00:16:00;;;;;;;35.33;17.17;;;;;;;-8.34;100.00;98176.75;5041753;28;20284;-61
2024/01/11 00:18:27;;;;;;;35.03;18.90;;;;;;;-8.32;100.00;98177.50;5031705;28;20120;-61
2024/01/11 00:20:53;;;;;;;44.28;18.65;;;;;;;-8.14;100.00;98188.41;5036341;28;20132;-61
2024/01/11 00:23:20;;;;;;;40.95;18.55;;;;;;;-8.19;100.00;98181.84;5031313;28;20044;-61
2024/01/11 00:25:46;;;;;;;39.28;18.38;;;;;;;-8.19;100.00;98193.19;5030924;28;20399;-61
2024/01/11 00:28:13;;;;;;;34.95;18.25;;;;;;;-8.22;100.00;98198.69;5048916;28;20045;-61
2024/01/11 00:30:39;;;;;;;33.83;17.50;;;;;;;-8.44;100.00;98191.50;5051477;28;20106;-61
2024/01/11 00:33:06;;;;;;;36.75;15.55;;;;;;;-8.71;100.00;98197.81;5047709;28;20045;-62
2024/01/11 00:35:33;;;;;;;37.92;18.00;;;;;;;-8.73;100.00;98191.84;5044438;28;20033;-61
2024/01/11 00:37:59;;;;;;;39.05;17.95;;;;;;;-8.59;100.00;98199.56;5035466;28;20045;-61
2024/01/11 00:40:26;;;;;;;33.47;17.27;;;;;;;-8.57;100.00;98200.28;5054158;28;20523;-60
2024/01/11 00:42:53;;;;;;;34.00;18.92;;;;;;;-8.59;100.00;98193.47;5047638;28;20045;-61
2024/01/11 00:45:19;;;;;;;33.30;16.67;;;;;;;-8.66;100.00;98193.91;5043687;28;20065;-61
2024/01/11 00:47:46;;;;;;;39.88;18.83;;;;;;;-8.71;100.00;98197.81;5038300;28;20045;-60
2024/01/11 00:50:12;;;;;;;39.63;19.10;;;;;;;-8.69;100.00;98195.91;5048014;28;20109;-61
2024/01/11 00:52:39;;;;;;;38.47;17.17;;;;;;;-8.66;100.00;98195.72;5042956;28;20925;-61
2024/01/11 00:55:06;;;;;;;35.60;17.90;;;;;;;-8.65;100.00;98192.97;5043683;28;20048;-61
2024/01/11 00:57:33;;;;;;;30.08;14.48;;;;;;;-8.63;100.00;98190.22;5047071;28;20084;-61
2024/01/11 00:59:59;;;;;;;30.65;16.77;;;;;;;-8.59;100.00;98194.31;5048665;28;20051;-61
2024/01/11 01:02:26;;;;;;;37.03;16.95;;;;;;;-8.46;100.00;98198.66;5046798;28;20424;-61
2024/01/11 01:04:53;;;;;;;37.13;19.00;;;;;;;-8.36;100.00;98212.81;5048679;28;20041;-61
2024/01/11 01:07:19;;;;;;;36.88;18.58;;;;;;;-8.33;100.00;98220.47;5043844;28;20103;-61
2024/01/11 01:09:46;;;;;;;32.25;17.67;;;;;;;-8.54;100.00;98209.75;5051776;28;20037;-61
2024/01/11 01:12:12;;;;;;;32.28;15.18;;;;;;;-8.77;100.00;98209.59;5045857;28;20128;-61
2024/01/11 01:14:39;;;;;;;32.25;17.02;;;;;;;-8.79;100.00;98204.44;5047538;28;20044;-61
2024/01/11 01:17:06;;;;;;;29.90;15.93;;;;;;;-8.79;100.00;98207.06;5051599;28;20415;-61
2024/01/11 01:19:33;;;;;;;32.88;16.88;;;;;;;-8.86;100.00;98200.56;5046264;28;20523;-60
2024/01/11 01:21:59;;;;;;;39.70;17.38;;;;;;;-8.88;100.00;98198.06;5049248;28;20048;-61
2024/01/11 01:24:26;;;;;;;30.35;15.15;;;;;;;-8.81;100.00;98195.84;5042363;28;20069;-61
2024/01/11 01:26:52;;;;;;;29.23;15.65;;;;;;;-8.78;100.00;98195.63;5031971;28;20043;-61
2024/01/11 01:29:19;;;;;;;41.40;17.10;;;;;;;-8.71;100.00;98203.91;5049535;28;20128;-61
2024/01/11 01:31:45;;;;;;;34.17;16.52;;;;;;;-8.69;100.00;98199.41;5054194;28;20125;-61
2024/01/11 01:34:14;;;;;;;38.95;16.38;;;;;;;-8.66;100.00;98201.78;5056163;28;20270;-61
2024/01/11 01:36:41;;;;;;;37.92;16.95;;;;;;;-8.59;100.00;98210.06;5050260;28;20053;-62
2024/01/11 01:39:07;;;;;;;43.42;18.15;;;;;;;-8.62;100.00;98210.31;5047587;28;20083;-62
2024/01/11 01:41:34;;;;;;;35.78;17.20;;;;;;;-8.56;100.00;98215.09;5058753;28;20107;-61
2024/01/11 01:44:00;;;;;;;35.03;16.50;;;;;;;-8.62;100.00;98216.38;5051067;28;20409;-60
2024/01/11 01:46:28;;;;;;;36.88;16.83;;;;;;;-8.70;100.00;98216.06;5048073;28;20041;-61
2024/01/11 01:48:57;;;;;;;36.22;17.80;;;;;;;-8.69;100.00;98225.66;5053476;28;20037;-61
2024/01/11 01:51:28;;;;;;;35.45;18.35;;;;;;;-8.75;100.00;98224.28;5038607;28;20133;-61
2024/01/11 01:53:56;;;;;;;32.83;14.43;;;;;;;-8.76;100.00;98227.03;5043200;28;20053;-61
2024/01/11 01:56:23;;;;;;;27.88;17.10;;;;;;;-8.78;100.00;98237.63;5050658;28;20053;-61
2024/01/11 01:58:51;;;;;;;38.30;18.27;;;;;;;-8.79;100.00;98229.84;5050946;28;20056;-61
2024/01/11 02:01:20;;;;;;;36.05;15.95;;;;;;;-8.96;100.00;98228.41;5043840;28;20033;-61
2024/01/11 02:03:51;;;;;;;41.60;17.48;;;;;;;-8.95;100.00;98230.09;5045394;28;20460;-61
2024/01/11 02:06:19;;;;;;;29.27;15.27;;;;;;;-8.96;100.00;98223.16;5046102;28;20672;-61
2024/01/11 02:08:46;;;;;;;31.85;15.10;;;;;;;-9.02;100.00;98221.81;5044311;28;20045;-61
2024/01/11 02:11:13;;;;;;;30.38;16.33;;;;;;;-8.98;100.00;98222.44;5041750;28;20516;-61
2024/01/11 02:13:40;;;;;;;40.70;17.65;;;;;;;-8.99;100.00;98220.75;5035817;28;20037;-61
2024/01/11 02:16:07;;;;;;;31.83;17.20;;;;;;;-8.88;100.00;98212.97;5042825;28;20528;-61
2024/01/11 02:18:33;;;;;;;33.80;14.68;;;;;;;-8.92;100.00;98225.47;5042585;28;20565;-61
2024/01/11 02:21:04;;;;;;;31.52;16.02;;;;;;;-8.85;100.00;98230.28;5049920;28;20048;-62
2024/01/11 02:23:31;;;;;;;33.50;16.70;;;;;;;-8.77;100.00;98231.41;5051074;28;20037;-61
2024/01/11 02:25:57;;;;;;;36.42;16.88;;;;;;;-8.84;100.00;98235.44;5042362;28;20063;-61
2024/01/11 02:28:24;;;;;;;31.95;15.80;;;;;;;-8.95;100.00;98236.19;5045679;28;20032;-61
2024/01/11 02:30:50;;;;;;;28.80;15.20;;;;;;;-8.98;100.00;98233.78;5045483;28;20041;-61
2024/01/11 02:33:18;;;;;;;24.40;13.57;;;;;;;-9.01;100.00;98240.06;5042258;28;20089;-61
2024/01/11 02:35:45;;;;;;;37.03;16.20;;;;;;;-8.99;100.00;98232.09;5050739;28;20051;-61
2024/01/11 02:38:14;;;;;;;33.08;15.20;;;;;;;-8.97;100.00;98237.22;5040566;28;20427;-60
2024/01/11 02:40:42;;;;;;;35.15;15.90;;;;;;;-8.93;100.00;98234.28;5032840;28;20041;-61
2024/01/11 02:43:10;;;;;;;28.65;14.65;;;;;;;-8.73;100.00;98242.56;5046314;28;20048;-61
2024/01/11 02:45:37;;;;;;;37.65;17.27;;;;;;;-8.81;100.00;98239.63;5035824;28;20109;-61
2024/01/11 02:48:04;;;;;;;32.72;16.33;;;;;;;-8.98;100.00;98236.41;5048346;28;20052;-62
2024/01/11 02:50:31;;;;;;;31.95;15.57;;;;;;;-9.11;100.00;98238.19;5037950;28;20037;-62
2024/01/11 02:52:57;;;;;;;30.80;14.65;;;;;;;-9.16;100.00;98235.88;5043125;28;20485;-62
2024/01/11 02:55:24;;;;;;;29.50;16.17;;;;;;;-9.22;100.00;98231.06;5054022;28;20233;-61
2024/01/11 02:57:50;;;;;;;41.00;15.88;;;;;;;-9.18;100.00;98238.59;5048277;28;20424;-61
2024/01/11 03:00:17;;;;;;;28.10;13.90;;;;;;;-9.20;100.00;98232.63;5045070;28;20041;-61
2024/01/11 03:02:43;;;;;;;31.45;16.02;;;;;;;-9.17;100.00;98226.34;5043467;28;20045;-61
2024/01/11 03:05:10;;;;;;;31.85;15.82;;;;;;;-9.17;100.00;98218.47;5047193;28;20052;-61
2024/01/11 03:07:37;;;;;;;35.42;17.60;;;;;;;-9.11;100.00;98220.66;5038869;28;20045;-61
2024/01/11 03:10:04;;;;;;;38.28;16.63;;;;;;;-9.09;100.00;98216.16;5036721;28;20420;-61
2024/01/11 03:12:30;;;;;;;31.25;16.58;;;;;;;-9.10;100.00;98209.22;5043776;28;20315;-61
2024/01/11 03:14:57;;;;;;;30.50;16.17;;;;;;;-9.08;100.00;98215.19;5032564;28;20535;-61
2024/01/11 03:17:23;;;;;;;31.45;17.08;;;;;;;-9.12;100.00;98211.09;5036762;28;20755;-61
2024/01/11 03:19:50;;;;;;;38.00;18.05;;;;;;;-9.15;100.00;98206.91;5038993;28;20049;-61
2024/01/11 03:22:16;;;;;;;33.78;15.45;;;;;;;-9.13;100.00;98204.19;5032173;28;20045;-61
2024/01/11 03:24:43;;;;;;;41.35;18.67;;;;;;;-9.06;100.00;98212.47;5038716;28;20124;-61
2024/01/11 03:27:09;;;;;;;31.67;15.77;;;;;;;-9.01;100.00;98212.97;5036230;28;20292;-61
2024/01/11 03:29:36;;;;;;;30.00;15.70;;;;;;;-9.03;100.00;98210.47;5036334;28;20166;-61
2024/01/11 03:32:03;;;;;;;37.90;17.63;;;;;;;-9.06;100.00;98208.06;5031451;28;20313;-61
2024/01/11 03:34:29;;;;;;;35.03;18.30;;;;;;;-9.05;100.00;98208.91;5045692;28;20049;-61
2024/01/11 03:36:56;;;;;;;32.67;16.98;;;;;;;-9.17;100.00;98223.72;5035353;28;20053;-61
2024/01/11 03:39:24;;;;;;;32.35;14.68;;;;;;;-9.19;100.00;98209.84;5036574;28;20061;-61
2024/01/11 03:41:51;;;;;;;31.98;16.90;;;;;;;-9.12;100.00;98205.84;5035992;28;20040;-61
2024/01/11 03:44:17;;;;;;;30.00;15.45;;;;;;;-9.09;100.00;98210.06;5040030;28;20049;-59
2024/01/11 03:46:44;;;;;;;34.63;15.32;;;;;;;-9.09;100.00;98210.06;5042429;28;20036;-61
2024/01/11 03:49:10;;;;;;;31.98;15.57;;;;;;;-8.96;100.00;98212.69;5041273;28;20045;-61
2024/01/11 03:51:37;;;;;;;26.20;13.98;;;;;;;-9.06;100.00;98212.47;5040518;28;20037;-61
2024/01/11 03:54:04;;;;;;;24.90;12.93;;;;;;;-9.06;100.00;98205.44;5053615;28;20059;-61
2024/01/11 03:56:30;;;;;;;27.60;14.30;;;;;;;-9.01;100.00;98210.34;5044295;28;20558;-60
2024/01/11 03:58:57;;;;;;;30.85;16.17;;;;;;;-8.95;100.00;98209.94;5041966;28;20107;-61
2024/01/11 04:01:24;;;;;;;31.00;15.20;;;;;;;-9.03;100.00;98209.66;5040402;28;20152;-61
2024/01/11 04:03:51;;;;;;;32.97;15.50;;;;;;;-9.08;100.00;98206.47;5037510;28;20057;-60
2024/01/11 04:06:24;;;;;;;27.05;14.88;;;;;;;-9.17;100.00;98208.81;5045517;28;20068;-60
2024/01/11 04:08:51;;;;;;;36.17;17.15;;;;;;;-9.19;100.00;98197.56;5047704;28;20127;-61
2024/01/11 04:11:18;;;;;;;32.75;17.50;;;;;;;-9.18;100.00;98201.03;5043101;28;20064;-60
2024/01/11 04:13:45;;;;;;;31.80;16.48;;;;;;;-9.08;100.00;98199.44;5036014;28;20045;-60
2024/01/11 04:16:11;;;;;;;33.28;18.25;;;;;;;-9.07;100.00;98203.75;5055618;28;20275;-61
2024/01/11 04:18:38;;;;;;;33.28;15.55;;;;;;;-9.14;100.00;98198.09;5040659;28;20047;-61
2024/01/11 04:21:05;;;;;;;32.58;17.48;;;;;;;-9.13;100.00;98204.19;5037982;28;20033;-60
2024/01/11 04:23:31;;;;;;;35.38;16.75;;;;;;;-9.24;100.00;98199.69;5036570;28;20277;-61
2024/01/11 04:25:58;;;;;;;34.42;15.82;;;;;;;-9.19;100.00;98205.44;5036872;28;20072;-61
2024/01/11 04:28:25;;;;;;;38.92;15.15;;;;;;;-9.14;100.00;98197.28;5036504;28;20045;-60
2024/01/11 04:30:51;;;;;;;25.20;14.57;;;;;;;-9.09;100.00;98196.94;5045857;28;20049;-60
2024/01/11 04:33:18;;;;;;;31.23;16.00;;;;;;;-9.12;100.00;98192.75;5037265;28;20037;-60
2024/01/11 04:35:44;;;;;;;32.42;16.15;;;;;;;-9.14;100.00;98192.03;5037934;28;20423;-61
2024/01/11 04:38:11;;;;;;;35.08;17.00;;;;;;;-9.16;100.00;98194.75;5038474;28;20041;-60
2024/01/11 04:40:38;;;;;;;32.28;13.98;;;;;;;-9.10;100.00;98193.50;5034326;28;20107;-60
2024/01/11 04:43:05;;;;;;;34.45;15.85;;;;;;;-9.11;100.00;98197.03;5043458;28;20504;-61
2024/01/11 04:45:31;;;;;;;33.70;17.17;;;;;;;-9.16;100.00;98201.75;5052201;28;20045;-61
2024/01/11 04:47:58;;;;;;;32.90;15.63;;;;;;;-9.17;100.00;98200.94;5041204;28;20115;-61
2024/01/11 04:50:25;;;;;;;35.75;17.85;;;;;;;-9.19;100.00;98196.72;5039410;28;20037;-60
2024/01/11 04:52:52;;;;;;;34.97;15.88;;;;;;;-9.22;100.00;98205.66;5041725;28;20051;-60
2024/01/11 04:55:18;;;;;;;33.60;14.93;;;;;;;-9.23;100.00;98195.25;5031350;28;20059;-60
2024/01/11 04:57:45;;;;;;;32.53;17.20;;;;;;;-9.24;100.00;98201.44;5036493;28;20400;-61
2024/01/11 05:00:12;;;;;;;31.20;16.80;;;;;;;-9.24;100.00;98194.44;5039702;28;20075;-60
2024/01/11 05:02:38;;;;;;;38.42;19.00;;;;;;;-9.30;100.00;98187.81;5027780;28;20207;-60
2024/01/11 05:05:05;;;;;;;27.33;14.05;;;;;;;-9.28;100.00;98198.22;5036866;28;20051;-60
2024/01/11 05:07:32;;;;;;;33.92;16.52;;;;;;;-9.27;100.00;98198.13;5044148;28;20045;-60
2024/01/11 05:09:58;;;;;;;32.70;16.95;;;;;;;-9.22;100.00;98194.34;5036602;28;20128;-61
2024/01/11 05:12:25;;;;;;;31.70;17.80;;;;;;;-9.16;100.00;98199.16;5030843;28;20042;-61
2024/01/11 05:14:51;;;;;;;37.95;17.67;;;;;;;-9.09;100.00;98199.56;5047733;28;20167;-60
2024/01/11 05:17:18;;;;;;;30.00;15.85;;;;;;;-9.05;100.00;98212.38;5040956;28;20056;-60
2024/01/11 05:19:44;;;;;;;33.03;17.55;;;;;;;-9.07;100.00;98209.00;5042439;28;20328;-60
2024/01/11 05:22:11;;;;;;;40.20;18.65;;;;;;;-9.05;100.00;98215.00;5045139;28;20049;-60
2024/01/11 05:24:37;;;;;;;37.78;16.65;;;;;;;-9.04;100.00;98216.66;5048143;28;20083;-61
2024/01/11 05:27:04;;;;;;;39.55;21.15;;;;;;;-9.16;100.00;98214.88;5044790;28;20376;-60
2024/01/11 05:29:31;;;;;;;39.40;20.35;;;;;;;-9.21;100.00;98217.00;5044669;28;20133;-61
2024/01/11 05:31:58;;;;;;;30.05;15.77;;;;;;;-9.19;100.00;98215.09;5040821;28;20038;-60
2024/01/11 05:34:25;;;;;;;39.85;16.95;;;;;;;-9.16;100.00;98225.38;5043092;28;20042;-61
2024/01/11 05:36:51;;;;;;;35.38;19.45;;;;;;;-9.20;100.00;98235.25;5042317;28;20056;-60
2024/01/11 05:39:18;;;;;;;38.55;19.15;;;;;;;-9.20;100.00;98229.16;5036567;28;20045;-60
2024/01/11 05:41:45;;;;;;;35.40;19.77;;;;;;;-9.22;100.00;98234.50;5034417;28;20072;-60
2024/01/11 05:44:11;;;;;;;40.85;20.23;;;;;;;-9.21;100.00;98232.72;5042108;28;20056;-60
2024/01/11 05:46:38;;;;;;;39.85;18.63;;;;;;;-9.12;100.00;98232.09;5044682;28;20044;-61
2024/01/11 05:49:05;;;;;;;43.00;22.65;;;;;;;-9.14;100.00;98237.44;5047565;28;20048;-60
2024/01/11 05:51:32;;;;;;;44.38;19.55;;;;;;;-9.00;100.00;98235.66;5041776;28;20047;-61
2024/01/11 05:53:58;;;;;;;41.45;19.90;;;;;;;-8.99;100.00;98239.13;5044789;28;20524;-60
2024/01/11 05:56:25;;;;;;;41.40;18.75;;;;;;;-8.77;100.00;98249.81;5043752;28;20044;-60
2024/01/11 05:58:51;;;;;;;42.85;21.88;;;;;;;-9.04;100.00;98250.78;5043639;28;20049;-61
2024/01/11 06:01:18;;;;;;;45.25;20.55;;;;;;;-9.07;100.00;98256.22;5043091;28;20042;-61
2024/01/11 06:03:44;;;;;;;39.63;18.85;;;;;;;-8.97;100.00;98261.69;5054149;28;20041;-61
2024/01/11 06:06:11;;;;;;;50.17;21.02;;;;;;;-9.17;100.00;98263.06;5046592;28;20108;-61
2024/01/11 06:08:38;;;;;;;45.60;21.27;;;;;;;-9.30;100.00;98261.28;5048078;28;20087;-61
2024/01/11 06:11:05;;;;;;;39.55;19.73;;;;;;;-9.42;100.00;98260.31;5047453;28;20041;-61
2024/01/11 06:13:32;;;;;;;41.30;20.55;;;;;;;-9.36;100.00;98252.97;5043446;28;20326;-61
2024/01/11 06:15:59;;;;;;;44.60;20.60;;;;;;;-9.49;100.00;98260.81;5042688;28;20424;-61
2024/01/11 06:18:25;;;;;;;41.90;21.15;;;;;;;-9.43;100.00;98255.19;5039681;28;20519;-61
2024/01/11 06:20:52;;;;;;;40.78;20.30;;;;;;;-9.51;100.00;98255.69;5038112;28;20045;-61
2024/01/11 06:23:19;;;;;;;37.13;17.92;;;;;;;-9.55;100.00;98257.66;5032619;28;20041;-60
2024/01/11 06:25:46;;;;;;;35.60;18.40;;;;;;;-9.55;100.00;98260.28;5045870;28;20063;-61
2024/01/11 06:28:13;;;;;;;40.95;19.35;;;;;;;-9.46;100.00;98248.34;5038681;28;20068;-61
2024/01/11 06:30:40;;;;;;;32.42;17.88;;;;;;;-9.48;100.00;98257.28;5031149;28;20036;-61
2024/01/11 06:33:06;;;;;;;37.35;19.25;;;;;;;-9.56;100.00;98261.25;5047514;28;20072;-60
2024/01/11 06:35:33;;;;;;;37.53;19.42;;;;;;;-9.68;100.00;98259.44;5044117;28;20050;-60
2024/01/11 06:38:00;;;;;;;39.75;19.10;;;;;;;-9.62;100.00;98256.38;5044207;28;20128;-60
2024/01/11 06:40:27;;;;;;;43.33;20.15;;;;;;;-9.52;100.00;98261.88;5041956;28;21090;-61
2024/01/11 06:42:53;;;;;;;40.00;19.95;;;;;;;-9.42;100.00;98268.19;5038391;28;20040;-61
2024/01/11 06:45:20;;;;;;;42.20;22.85;;;;;;;-9.40;100.00;98271.53;5044383;28;20045;-62
2024/01/11 06:47:47;;;;;;;42.70;21.08;;;;;;;-9.25;100.00;98263.59;5042425;28;20045;-61
2024/01/11 06:50:13;;;;;;;37.10;18.70;;;;;;;-9.27;100.00;98271.56;5054219;28;20384;-61
2024/01/11 06:52:40;;;;;;;34.80;17.65;;;;;;;-9.46;100.00;98277.19;5047142;28;20045;-60
2024/01/11 06:55:07;;;;;;;33.58;18.60;;;;;;;-9.57;100.00;98266.59;5041727;28;20641;-60
2024/01/11 06:57:34;;;;;;;35.42;18.92;;;;;;;-9.55;100.00;98267.34;5041885;28;20048;-61
2024/01/11 07:00:00;;;;;;;44.97;20.13;;;;;;;-9.47;100.00;98265.00;5032947;28;20107;-61
2024/01/11 07:02:27;;;;;;;44.53;17.77;;;;;;;-9.43;100.00;98274.34;5049895;28;20071;-59
2024/01/11 07:04:54;;;;;;;39.08;20.98;;;;;;;-9.38;100.00;98284.56;5042365;28;20049;-60
2024/01/11 07:07:20;;;;;;;36.22;19.75;;;;;;;-9.20;100.00;98284.25;5045533;28;20044;-61
2024/01/11 07:09:47;;;;;;;43.45;21.63;;;;;;;-9.11;100.00;98295.91;5038550;28;20096;-61
2024/01/11 07:12:13;;;;;;;38.80;21.90;;;;;;;-9.19;100.00;98294.66;5038005;28;20543;-60
2024/01/11 07:14:40;;;;;;;39.15;21.00;;;;;;;-9.25;100.00;98299.47;5054484;28;20046;-61
2024/01/11 07:17:06;;;;;;;41.70;20.33;;;;;;;-9.29;100.00;98304.91;5048589;28;20107;-60
2024/01/11 07:19:33;;;;;;;38.47;19.17;;;;;;;-9.21;100.00;98293.06;5049892;28;20068;-61
2024/01/11 07:21:59;;;;;;;39.65;20.25;;;;;;;-9.31;100.00;98298.94;5039239;28;20052;-60
2024/01/11 07:24:26;;;;;;;42.25;19.83;;;;;;;-9.32;100.00;98294.66;5048745;28;20040;-61
2024/01/11 07:26:53;;;;;;;43.08;21.30;;;;;;;-9.47;100.00;98300.91;5050751;28;20055;-61
2024/01/11 07:29:20;;;;;;;35.65;18.50;;;;;;;-9.50;100.00;98298.47;5049336;28;20037;-61
2024/01/11 07:31:47;;;;;;;42.25;20.42;;;;;;;-9.44;100.00;98306.78;5046664;28;20041;-61
2024/01/11 07:34:13;;;;;;;36.28;18.58;;;;;;;-9.34;100.00;98311.41;5046564;28;20044;-61
2024/01/11 07:36:40;;;;;;;45.97;20.35;;;;;;;-9.19;100.00;98312.16;5033291;28;20045;-61
2024/01/11 07:39:06;;;;;;;44.22;21.05;;;;;;;-9.17;100.00;98316.38;5044142;28;20065;-60
2024/01/11 07:41:33;;;;;;;37.97;21.27;;;;;;;-9.27;100.00;98324.03;5043800;28;20048;-61
2024/01/11 07:43:59;;;;;;;40.28;20.00;;;;;;;-9.49;100.00;98318.50;5042634;28;20123;-62
2024/01/11 07:46:26;;;;;;;30.65;17.98;;;;;;;-9.49;100.00;98319.34;5047275;28;20522;-62
2024/01/11 07:49:05;;;;;;;47.83;19.33;;;;;;;-9.41;100.00;98319.69;5050061;28;20269;-61
2024/01/11 07:51:34;;;;;;;42.97;20.63;;;;;;;-9.08;100.00;98321.94;5046805;28;20045;-62
2024/01/11 07:54:01;;;;;;;39.95;19.55;;;;;;;-8.82;100.00;98325.41;5050209;28;20047;-61
2024/01/11 07:56:27;;;;;;;42.33;20.63;;;;;;;-8.85;100.00;98328.25;5047931;28;20106;-61
2024/01/11 07:58:54;;;;;;;42.42;20.08;;;;;;;-8.99;100.00;98333.59;5045536;28;20061;-61
2024/01/11 08:01:20;;;;;;;41.00;20.77;;;;;;;-8.95;100.00;98353.44;5046082;28;20482;-62
2024/01/11 08:03:47;;;;;;;41.47;21.13;;;;;;;-8.96;100.00;98362.28;5046164;28;20052;-61
2024/01/11 08:06:14;;;;;;;43.20;20.48;;;;;;;-8.66;100.00;98366.38;5030840;28;20041;-61
2024/01/11 08:08:41;;;;;;;40.45;19.45;;;;;;;-8.86;100.00;98363.31;5038693;28;20588;-61
2024/01/11 08:11:08;;;;;;;32.80;17.52;;;;;;;-8.95;100.00;98367.44;5033169;28;20120;-62
2024/01/11 08:13:37;;;;;;;45.30;20.17;;;;;;;-8.86;100.00;98352.81;5048161;28;20136;-61
2024/01/11 08:16:07;;;;;;;37.17;21.88;;;;;;;-8.71;100.00;98364.06;5047020;28;20072;-61
2024/01/11 08:18:33;;;;;;;40.05;21.13;;;;;;;-8.41;100.00;98377.81;5059827;28;20051;-62
2024/01/11 08:21:00;;;;;;;42.33;21.33;;;;;;;-8.40;100.00;98380.31;5047563;28;20041;-60
2024/01/11 08:23:26;;;;;;;41.00;20.20;;;;;;;-8.44;100.00;98380.63;5045845;28;20716;-62
2024/01/11 08:25:53;;;;;;;40.85;21.25;;;;;;;-8.46;100.00;98375.50;5043459;28;20111;-61
2024/01/11 08:28:20;;;;;;;43.28;19.42;;;;;;;-8.46;100.00;98369.38;5057767;28;20040;-61
2024/01/11 08:30:47;;;;;;;41.38;20.02;;;;;;;-8.39;100.00;98370.66;5043585;28;20517;-63
2024/01/11 08:33:13;;;;;;;38.60;21.52;;;;;;;-8.32;100.00;98377.16;5040570;28;20133;-65
2024/01/11 08:35:41;;;;;;;38.40;20.73;;;;;;;-8.13;100.00;98383.75;5040057;28;20045;-62
2024/01/11 08:38:08;;;;;;;48.53;25.52;;;;;;;-8.06;100.00;98384.16;5036964;28;20604;-61
2024/01/11 08:40:35;;;;;;;45.95;22.20;;;;;;;-7.98;100.00;98382.69;5038723;28;20091;-65
2024/01/11 08:43:03;;;;;;;47.00;22.15;;;;;;;-7.94;100.00;98375.41;5033341;28;20106;-62
2024/01/11 08:45:29;;;;;;;44.38;22.08;;;;;;;-7.85;100.00;98377.38;5041860;28;20045;-63
2024/01/11 08:47:56;;;;;;;52.88;23.00;;;;;;;-7.87;100.00;98381.06;5046859;28;20659;-61
2024/01/11 08:50:23;;;;;;;50.60;23.67;;;;;;;-7.86;100.00;98380.09;5042700;28;20048;-64
2024/01/11 08:52:55;;;;;;;51.50;25.90;;;;;;;-7.81;100.00;98383.25;5043335;28;20060;-64
2024/01/11 08:55:21;;;;;;;47.33;22.77;;;;;;;-7.70;100.00;98377.22;5037001;28;20040;-64
2024/01/11 08:57:48;;;;;;;42.08;23.85;;;;;;;-7.70;100.00;98374.59;5040051;28;20037;-64
2024/01/11 09:00:18;;;;;;;48.70;22.60;;;;;;;-7.65;100.00;98383.00;5041379;28;20041;-63
2024/01/11 09:02:45;;;;;;;45.40;21.38;;;;;;;-7.51;100.00;98375.88;5041245;28;20041;-64
2024/01/11 09:05:16;;;;;;;51.53;22.08;;;;;;;-7.25;100.00;98373.97;5047431;28;20115;-64
2024/01/11 09:07:43;;;;;;;50.38;24.27;;;;;;;-7.20;100.00;98371.00;5047849;28;20099;-64
2024/01/11 09:10:11;;;;;;;42.40;22.65;;;;;;;-7.12;100.00;98376.53;5033694;28;20115;-64
2024/01/11 09:12:38;;;;;;;41.38;22.20;;;;;;;-6.83;100.00;98386.66;5054258;28;20040;-64
2024/01/11 09:15:05;;;;;;;44.22;20.98;;;;;;;-6.67;100.00;98390.78;5047712;28;20087;-61
2024/01/11 09:17:32;;;;;;;39.03;19.55;;;;;;;-6.57;100.00;98383.84;5055798;28;20115;-62
2024/01/11 09:19:59;;;;;;;40.63;19.88;;;;;;;-6.41;100.00;98375.59;5045120;28;20037;-66
2024/01/11 09:22:25;;;;;;;42.45;20.38;;;;;;;-6.29;100.00;98367.69;5048869;28;20503;-61
2024/01/11 09:24:52;;;;;;;39.60;19.00;;;;;;;-6.16;100.00;98373.69;5048243;28;20041;-61
2024/01/11 09:27:18;;;;;;;38.00;20.50;;;;;;;-6.17;100.00;98389.63;5053544;28;20052;-63
2024/01/11 09:29:46;;;;;;;35.15;17.88;;;;;;;-6.11;100.00;98385.66;5053624;28;20049;-62
2024/01/11 09:32:13;;;;;;;42.70;20.20;;;;;;;-6.07;100.00;98397.66;5046213;28;20049;-61
2024/01/11 09:34:39;;;;;;;43.78;21.63;;;;;;;-6.03;100.00;98388.53;5038754;28;20053;-61
2024/01/11 09:37:06;;;;;;;40.85;21.20;;;;;;;-5.96;100.00;98383.59;5041976;28;20048;-63
2024/01/11 09:39:32;;;;;;;39.45;19.88;;;;;;;-5.90;100.00;98391.84;5044821;28;20489;-63
2024/01/11 09:42:09;;;;;;;41.03;19.40;;;;;;;-5.84;100.00;98394.97;5047384;28;20037;-62
2024/01/11 09:44:38;;;;;;;41.47;20.42;;;;;;;-5.85;100.00;98396.78;5039117;28;20047;-64
2024/01/11 09:47:10;;;;;;;38.70;19.02;;;;;;;-5.82;100.00;98401.78;5038756;28;20043;-63
2024/01/11 09:49:44;;;;;;;40.40;19.17;;;;;;;-5.75;100.00;98404.81;5052157;28;20048;-64
2024/01/11 09:52:13;;;;;;;38.85;18.30;;;;;;;-5.72;100.00;98409.81;5056153;28;20048;-62
2024/01/11 09:54:40;;;;;;;37.30;19.17;;;;;;;-5.67;100.00;98412.94;5054146;28;20111;-62
2024/01/11 09:57:09;;;;;;;33.17;18.60;;;;;;;-5.62;100.00;98413.41;5063866;28;20047;-62
2024/01/11 09:59:36;;;;;;;38.10;19.45;;;;;;;-5.50;100.00;98405.47;5047748;28;20056;-62
2024/01/11 10:02:03;;;;;;;42.15;20.80;;;;;;;-5.49;100.00;98407.97;5060964;28;20257;-62
2024/01/11 10:04:30;;;;;;;43.88;20.27;;;;;;;-5.48;100.00;98408.81;5057063;28;20124;-63
2024/01/11 10:06:57;;;;;;;36.50;18.45;;;;;;;-5.43;100.00;98405.78;5057035;28;20045;-62
2024/01/11 10:09:24;;;;;;;38.90;20.02;;;;;;;-5.35;100.00;98396.31;5046338;28;20656;-60
2024/01/11 10:11:53;;;;;;;37.95;19.10;;;;;;;-5.30;100.00;98397.72;5047162;28;20463;-64
2024/01/11 10:14:20;;;;;;;39.63;21.05;;;;;;;-5.37;100.00;98395.59;5038602;28;20044;-62
2024/01/11 10:16:47;;;;;;;36.80;18.27;;;;;;;-5.37;100.00;98382.41;5052001;28;20040;-61
2024/01/11 10:19:16;;;;;;;40.15;19.85;;;;;;;-5.24;100.00;98381.38;5049174;28;20062;-62
2024/01/11 10:21:43;;;;;;;37.42;20.75;;;;;;;-5.25;100.00;98377.91;5038231;28;20094;-63
2024/01/11 10:24:10;;;;;;;42.42;20.38;;;;;;;-5.18;100.00;98372.97;5053461;28;20448;-62
2024/01/11 10:26:36;;;;;;;34.95;18.55;;;;;;;-5.09;100.00;98366.91;5046354;28;20044;-59
2024/01/11 10:29:05;;;;;;;35.72;17.90;;;;;;;-5.06;100.00;98365.81;5043178;28;20045;-61
2024/01/11 10:31:34;;;;;;;40.10;18.70;;;;;;;-5.03;100.00;98357.66;5052363;28;20068;-61
2024/01/11 10:34:01;;;;;;;45.00;19.58;;;;;;;-4.96;100.00;98352.69;5055020;28;20033;-63
2024/01/11 10:36:30;;;;;;;40.67;20.15;;;;;;;-4.77;100.00;98364.34;5063302;28;20051;-62
2024/01/11 10:38:59;;;;;;;39.00;19.40;;;;;;;-4.74;100.00;98362.31;5055133;28;20040;-63
2024/01/11 10:41:28;;;;;;;39.80;19.67;;;;;;;-4.67;100.00;98353.84;5064803;28;20085;-62
2024/01/11 10:43:57;;;;;;;35.13;17.63;;;;;;;-4.59;100.00;98367.25;5060807;28;20041;-61
2024/01/11 10:46:25;;;;;;;37.90;18.27;;;;;;;-4.55;100.00;98366.03;5058961;28;20309;-63
2024/01/11 10:48:56;;;;;;;39.78;20.38;;;;;;;-4.47;100.00;98368.84;5051315;28;20535;-63
2024/01/11 10:51:25;;;;;;;35.92;19.40;;;;;;;-4.37;100.00;98371.53;5046185;28;20043;-62
2024/01/11 10:53:53;;;;;;;41.63;20.25;;;;;;;-4.29;100.00;98370.88;5043158;28;20278;-61
2024/01/11 10:56:21;;;;;;;41.47;21.08;;;;;;;-4.26;100.00;98370.63;5047107;28;20129;-61
2024/01/11 10:58:49;;;;;;;37.75;20.35;;;;;;;-4.21;100.00;98376.34;5042356;28;20071;-62
2024/01/11 11:01:16;;;;;;;40.90;21.15;;;;;;;-4.20;100.00;98375.38;5045595;28;20048;-62
2024/01/11 11:03:45;;;;;;;46.45;21.85;;;;;;;-4.19;100.00;98368.28;5043844;28;20056;-61
2024/01/11 11:06:12;;;;;;;43.58;22.10;;;;;;;-4.16;100.00;98375.13;5045315;28;20121;-61
2024/01/11 11:08:40;;;;;;;39.45;20.55;;;;;;;-4.12;100.00;98372.09;5058168;28;20103;-61